Terminal Aerodrome Forecast
Issued by NWS

Home | Current Version | Previous Version | Graphics & Text | Print | Product List | Glossary On
Versions: 1 2 3 4 5 6 7 8 9 10 11 12 13 14 15 16 17 18 19 20 21 22 23 24
357
FTUS43 KBIS 122335
TAFMOT
TAF
KMOT 122335Z 1300/1324 27017G25KT P6SM BKN200 WS020/32045KT
     FM130500 29021G30KT P6SM SCT030 BKN120
     FM131100 31028G41KT P6SM OVC020
     FM132300 31016G24KT P6SM BKN015=

USA.gov is the U.S. government's official web portal to all federal, state and local government web resources and services.